Time,TemperatureF,DewpointF,PressureIn,WindDirection,WindDirectionDegrees,WindSpeedMPH,WindSpeedGustMPH,Humidity,HourlyPrecipIn,Conditions,Clouds,dailyrainin,SoftwareType,DateUTC
2013-02-23 00:06:00,49.3,43.0,30.21,SSW,211,1.0,8.0,78,0.00,,,0.00,weatherlink.com 1.10,2013-02-23 08:06:00,
2013-02-23 00:22:00,48.4,42.0,30.20,SW,235,2.0,4.0,79,0.00,,,0.00,weatherlink.com 1.10,2013-02-23 08:22:00,
2013-02-23 00:37:00,48.0,42.0,30.21,SSE,162,0.0,6.0,79,0.00,,,0.00,weatherlink.com 1.10,2013-02-23 08:37:00,
2013-02-23 00:52:00,48.1,41.0,30.20,SSW,207,1.0,7.0,77,0.00,,,0.00,weatherlink.com 1.10,2013-02-23 08:52:00,
2013-02-23 01:07:00,48.1,41.0,30.21,SSW,208,1.0,5.0,77,0.00,,,0.00,weatherlink.com 1.10,2013-02-23 09:07:00,
2013-02-23 01:22:00,48.1,42.0,30.20,SW,233,4.0,5.0,79,0.00,,,0.00,weatherlink.com 1.10,2013-02-23 09:22:00,
2013-02-23 01:37:00,48.0,42.0,30.20,West,264,5.0,6.0,81,0.00,,,0.00,weatherlink.com 1.10,2013-02-23 09:37:00,
2013-02-23 01:52:00,48.0,43.0,30.20,WNW,288,1.0,7.0,84,0.00,,,0.00,weatherlink.com 1.10,2013-02-23 09:52:00,
2013-02-23 02:07:00,47.9,44.0,30.20,West,271,3.0,8.0,86,0.00,,,0.00,weatherlink.com 1.10,2013-02-23 10:07:00,
2013-02-23 02:22:00,47.9,44.0,30.19,WSW,252,3.0,8.0,87,0.00,,,0.00,weatherlink.com 1.10,2013-02-23 10:22:00,
2013-02-23 02:37:00,48.0,45.0,30.18,SSW,201,3.0,3.0,88,0.00,,,0.00,weatherlink.com 1.10,2013-02-23 10:37:00,
2013-02-23 02:52:00,48.7,45.0,30.18,SSE,149,2.0,5.0,88,0.00,,,0.00,weatherlink.com 1.10,2013-02-23 10:52:00,
2013-02-23 03:07:00,48.9,45.0,30.17,ESE,113,4.0,10.0,86,0.00,,,0.00,weatherlink.com 1.10,2013-02-23 11:07:00,
2013-02-23 03:22:00,48.9,45.0,30.18,South,174,4.0,10.0,87,0.00,,,0.00,weatherlink.com 1.10,2013-02-23 11:22:00,
2013-02-23 03:37:00,49.1,46.0,30.18,WSW,253,3.0,8.0,88,0.00,,,0.00,weatherlink.com 1.10,2013-02-23 11:37:00,
2013-02-23 03:52:00,49.3,46.0,30.18,SSW,200,3.0,4.0,89,0.00,,,0.00,weatherlink.com 1.10,2013-02-23 11:52:00,
2013-02-23 04:07:00,49.3,47.0,30.18,SSW,203,2.0,4.0,91,0.00,,,0.00,weatherlink.com 1.10,2013-02-23 12:07:00,
2013-02-23 04:22:00,49.4,47.0,30.18,WNW,302,5.0,6.0,91,0.00,,,0.00,weatherlink.com 1.10,2013-02-23 12:22:00,
2013-02-23 04:37:00,49.3,46.0,30.18,WNW,302,7.0,11.0,88,0.00,,,0.00,weatherlink.com 1.10,2013-02-23 12:37:00,
2013-02-23 04:52:00,48.5,45.0,30.17,WNW,297,3.0,5.0,88,0.00,,,0.00,weatherlink.com 1.10,2013-02-23 12:52:00,
2013-02-23 05:07:00,47.8,45.0,30.17,NNE,32,1.0,5.0,88,0.00,,,0.00,weatherlink.com 1.10,2013-02-23 13:07:00,
2013-02-23 05:22:00,47.4,44.0,30.17,SW,221,1.0,5.0,87,0.00,,,0.00,weatherlink.com 1.10,2013-02-23 13:22:00,
2013-02-23 05:52:00,46.5,43.0,30.18,NW,325,3.0,6.0,86,0.00,,,0.00,weatherlink.com 1.10,2013-02-23 13:52:00,
2013-02-23 06:07:00,45.9,42.0,30.19,WNW,290,0.0,4.0,87,0.00,,,0.00,weatherlink.com 1.10,2013-02-23 14:07:00,
2013-02-23 06:22:00,45.4,42.0,30.19,NE,56,0.0,2.0,88,0.00,,,0.00,weatherlink.com 1.10,2013-02-23 14:22:00,
2013-02-23 06:37:00,45.3,42.0,30.20,NNW,343,1.0,3.0,89,0.00,,,0.00,weatherlink.com 1.10,2013-02-23 14:37:00,
2013-02-23 06:52:00,45.2,42.0,30.20,NW,319,0.0,6.0,88,0.00,,,0.00,weatherlink.com 1.10,2013-02-23 14:52:00,
2013-02-23 07:07:00,44.8,42.0,30.21,NE,50,1.0,2.0,89,0.00,,,0.00,weatherlink.com 1.10,2013-02-23 15:07:00,
2013-02-23 07:22:00,44.6,41.0,30.22,NE,36,3.0,3.0,88,0.00,,,0.00,weatherlink.com 1.10,2013-02-23 15:22:00,
2013-02-23 07:38:00,45.2,42.0,30.22,North,349,1.0,4.0,87,0.00,,,0.00,weatherlink.com 1.10,2013-02-23 15:38:00,
2013-02-23 07:53:00,46.3,41.0,30.23,NNW,336,2.0,6.0,83,0.00,,,0.00,weatherlink.com 1.10,2013-02-23 15:53:00,
2013-02-23 08:08:00,47.3,40.0,30.24,NNW,347,2.0,12.0,76,0.00,,,0.00,weatherlink.com 1.10,2013-02-23 16:08:00,
2013-02-23 08:23:00,47.7,38.0,30.24,NNW,345,3.0,12.0,70,0.00,,,0.00,weatherlink.com 1.10,2013-02-23 16:23:00,
2013-02-23 08:38:00,48.0,39.0,30.25,North,1,4.0,11.0,70,0.00,,,0.00,weatherlink.com 1.10,2013-02-23 16:38:00,
2013-02-23 08:53:00,48.1,38.0,30.25,WNW,300,4.0,13.0,67,0.00,,,0.00,weatherlink.com 1.10,2013-02-23 16:53:00,
2013-02-23 09:08:00,48.5,38.0,30.25,NW,311,7.0,17.0,67,0.00,,,0.00,weatherlink.com 1.10,2013-02-23 17:08:00,
2013-02-23 09:23:00,48.7,38.0,30.25,ENE,58,4.0,12.0,66,0.00,,,0.00,weatherlink.com 1.10,2013-02-23 17:23:00,
2013-02-23 09:38:00,48.9,38.0,30.24,WNW,283,5.0,14.0,65,0.00,,,0.00,weatherlink.com 1.10,2013-02-23 17:38:00,
2013-02-23 09:53:00,49.6,38.0,30.24,North,9,7.0,15.0,64,0.00,,,0.00,weatherlink.com 1.10,2013-02-23 17:53:00,
2013-02-23 10:08:00,50.1,37.0,30.24,NW,320,8.0,10.0,62,0.00,,,0.00,weatherlink.com 1.10,2013-02-23 18:08:00,
2013-02-23 10:23:00,50.8,37.0,30.24,NW,319,4.0,12.0,59,0.00,,,0.00,weatherlink.com 1.10,2013-02-23 18:23:00,
2013-02-23 10:38:00,51.3,36.0,30.24,NNW,331,9.0,11.0,56,0.00,,,0.00,weatherlink.com 1.10,2013-02-23 18:38:00,
2013-02-23 10:53:00,51.6,36.0,30.24,NW,307,7.0,14.0,56,0.00,,,0.00,weatherlink.com 1.10,2013-02-23 18:53:00,
2013-02-23 11:08:00,52.3,36.0,30.24,NNW,334,5.0,12.0,55,0.00,,,0.00,weatherlink.com 1.10,2013-02-23 19:08:00,
2013-02-23 11:23:00,52.7,36.0,30.23,NNW,335,6.0,11.0,53,0.00,,,0.00,weatherlink.com 1.10,2013-02-23 19:23:00,
2013-02-23 11:38:00,53.2,36.0,30.23,NW,308,6.0,14.0,52,0.00,,,0.00,weatherlink.com 1.10,2013-02-23 19:38:00,
2013-02-23 11:53:00,53.6,36.0,30.23,North,360,7.0,14.0,51,0.00,,,0.00,weatherlink.com 1.10,2013-02-23 19:53:00,
2013-02-23 12:08:00,54.5,35.0,30.22,NW,325,10.0,10.0,49,0.00,,,0.00,weatherlink.com 1.10,2013-02-23 20:08:00,
2013-02-23 12:23:00,54.6,35.0,30.21,NW,311,5.0,14.0,48,0.00,,,0.00,weatherlink.com 1.10,2013-02-23 20:23:00,
2013-02-23 12:38:00,55.4,36.0,30.21,NNW,339,6.0,13.0,48,0.00,,,0.00,weatherlink.com 1.10,2013-02-23 20:38:00,
2013-02-23 12:53:00,55.2,36.0,30.21,NW,307,9.0,14.0,48,0.00,,,0.00,weatherlink.com 1.10,2013-02-23 20:53:00,
2013-02-23 13:08:00,56.3,35.0,30.19,North,354,4.0,10.0,45,0.00,,,0.00,weatherlink.com 1.10,2013-02-23 21:08:00,
2013-02-23 13:23:00,56.6,34.0,30.18,NW,315,10.0,15.0,43,0.00,,,0.00,weatherlink.com 1.10,2013-02-23 21:23:00,
2013-02-23 13:38:00,56.6,34.0,30.18,NNW,328,5.0,16.0,43,0.00,,,0.00,weatherlink.com 1.10,2013-02-23 21:38:00,
2013-02-23 13:54:00,56.9,33.0,30.17,NW,308,9.0,14.0,41,0.00,,,0.00,weatherlink.com 1.10,2013-02-23 21:54:00,
2013-02-23 14:08:00,57.5,34.0,30.17,NW,307,10.0,14.0,41,0.00,,,0.00,weatherlink.com 1.10,2013-02-23 22:08:00,
2013-02-23 14:23:00,57.0,36.0,30.17,NW,311,10.0,14.0,45,0.00,,,0.00,weatherlink.com 1.10,2013-02-23 22:23:00,
2013-02-23 14:38:00,56.8,35.0,30.17,NW,319,9.0,16.0,45,0.00,,,0.00,weatherlink.com 1.10,2013-02-23 22:38:00,
2013-02-23 14:53:00,56.7,36.0,30.16,NW,305,10.0,15.0,46,0.00,,,0.00,weatherlink.com 1.10,2013-02-23 22:53:00,
2013-02-23 15:08:00,56.7,36.0,30.16,WNW,300,3.0,13.0,46,0.00,,,0.00,weatherlink.com 1.10,2013-02-23 23:08:00,
2013-02-23 15:23:00,56.7,35.0,30.16,NNW,338,7.0,14.0,45,0.00,,,0.00,weatherlink.com 1.10,2013-02-23 23:23:00,
2013-02-23 15:54:00,56.7,36.0,30.15,NW,312,6.0,13.0,46,0.00,,,0.00,weatherlink.com 1.10,2013-02-23 23:54:00,
2013-02-23 16:09:00,56.8,35.0,30.15,NW,321,5.0,12.0,45,0.00,,,0.00,weatherlink.com 1.10,2013-02-24 00:09:00,
2013-02-23 16:24:00,56.7,36.0,30.15,NW,307,2.0,11.0,46,0.00,,,0.00,weatherlink.com 1.10,2013-02-24 00:24:00,
2013-02-23 16:40:00,56.5,36.0,30.15,NW,308,5.0,10.0,46,0.00,,,0.00,weatherlink.com 1.10,2013-02-24 00:40:00,
2013-02-23 16:54:00,56.8,38.0,30.16,West,274,3.0,8.0,49,0.00,,,0.00,weatherlink.com 1.10,2013-02-24 00:54:00,
2013-02-23 17:09:00,55.7,38.0,30.16,NW,307,10.0,10.0,52,0.00,,,0.00,weatherlink.com 1.10,2013-02-24 01:09:00,
2013-02-23 17:24:00,54.1,38.0,30.16,NNW,330,3.0,9.0,55,0.00,,,0.00,weatherlink.com 1.10,2013-02-24 01:24:00,
2013-02-23 17:39:00,52.9,38.0,30.16,NW,311,4.0,7.0,57,0.00,,,0.00,weatherlink.com 1.10,2013-02-24 01:39:00,
2013-02-23 17:54:00,52.1,38.0,30.17,NNW,345,5.0,7.0,60,0.00,,,0.00,weatherlink.com 1.10,2013-02-24 01:54:00,
2013-02-23 18:09:00,51.2,38.0,30.17,NW,307,0.0,5.0,62,0.00,,,0.00,weatherlink.com 1.10,2013-02-24 02:09:00,
2013-02-23 18:24:00,50.5,39.0,30.18,NNW,332,1.0,6.0,64,0.00,,,0.00,weatherlink.com 1.10,2013-02-24 02:24:00,
2013-02-23 18:39:00,49.9,38.0,30.18,NE,35,2.0,7.0,65,0.00,,,0.00,weatherlink.com 1.10,2013-02-24 02:39:00,
2013-02-23 18:55:00,49.5,38.0,30.19,NNW,340,4.0,7.0,65,0.00,,,0.00,weatherlink.com 1.10,2013-02-24 02:55:00,
2013-02-23 19:09:00,49.2,39.0,30.18,NW,311,2.0,8.0,67,0.00,,,0.00,weatherlink.com 1.10,2013-02-24 03:09:00,
2013-02-23 19:24:00,49.0,39.0,30.18,ENE,58,7.0,10.0,68,0.00,,,0.00,weatherlink.com 1.10,2013-02-24 03:24:00,
2013-02-23 19:39:00,48.9,39.0,30.19,NNE,16,3.0,10.0,70,0.00,,,0.00,weatherlink.com 1.10,2013-02-24 03:39:00,
2013-02-23 19:54:00,48.7,40.0,30.19,WNW,295,4.0,8.0,72,0.00,,,0.00,weatherlink.com 1.10,2013-02-24 03:54:00,
2013-02-23 20:09:00,49.0,39.0,30.19,NE,49,4.0,11.0,69,0.00,,,0.00,weatherlink.com 1.10,2013-02-24 04:09:00,
2013-02-23 20:24:00,48.7,39.0,30.19,NW,319,0.0,3.0,70,0.00,,,0.00,weatherlink.com 1.10,2013-02-24 04:24:00,
2013-02-23 20:39:00,48.7,39.0,30.20,NNE,24,5.0,10.0,69,0.00,,,0.00,weatherlink.com 1.10,2013-02-24 04:39:00,
2013-02-23 20:54:00,48.5,38.0,30.20,NW,326,3.0,11.0,67,0.00,,,0.00,weatherlink.com 1.10,2013-02-24 04:54:00,
2013-02-23 21:09:00,48.2,38.0,30.20,NE,35,1.0,6.0,69,0.00,,,0.00,weatherlink.com 1.10,2013-02-24 05:09:00,
2013-02-23 21:24:00,47.8,38.0,30.21,ENE,65,5.0,8.0,68,0.00,,,0.00,weatherlink.com 1.10,2013-02-24 05:24:00,
2013-02-23 21:39:00,47.9,38.0,30.21,NE,50,2.0,8.0,68,0.00,,,0.00,weatherlink.com 1.10,2013-02-24 05:39:00,
2013-02-23 21:54:00,47.1,37.0,30.21,NNW,345,3.0,6.0,69,0.00,,,0.00,weatherlink.com 1.10,2013-02-24 05:54:00,
2013-02-23 22:09:00,46.0,37.0,30.21,NNW,343,0.0,5.0,71,0.00,,,0.00,weatherlink.com 1.10,2013-02-24 06:09:00,
2013-02-23 22:24:00,46.6,37.0,30.21,NNE,32,2.0,8.0,69,0.00,,,0.00,weatherlink.com 1.10,2013-02-24 06:24:00,
2013-02-23 22:39:00,45.9,36.0,30.21,NE,39,2.0,4.0,68,0.00,,,0.00,weatherlink.com 1.10,2013-02-24 06:39:00,
2013-02-23 22:54:00,45.7,36.0,30.21,NNW,345,0.0,4.0,68,0.00,,,0.00,weatherlink.com 1.10,2013-02-24 06:54:00,
2013-02-23 23:09:00,45.9,36.0,30.21,ENE,58,1.0,6.0,69,0.00,,,0.00,weatherlink.com 1.10,2013-02-24 07:09:00,
2013-02-23 23:24:00,45.8,37.0,30.21,ENE,60,3.0,6.0,70,0.00,,,0.00,weatherlink.com 1.10,2013-02-24 07:24:00,
2013-02-23 23:39:00,45.6,37.0,30.22,NE,48,2.0,6.0,71,0.00,,,0.00,weatherlink.com 1.10,2013-02-24 07:39:00,
2013-02-23 23:54:00,45.5,37.0,30.21,ENE,57,5.0,6.0,72,0.00,,,0.00,weatherlink.com 1.10,2013-02-24 07:54:00,